aviador You're here:

KLUX Decoded Metar

LAURENS CTY in SC, USA
Report Time2017-09-22 23:55:00
UTC Time2017-09-23 00:10:57
Flight Rules vfr VFR
Wind090° at 03 kt
W.Decomp.*RWY 08: 2.9 kt HW 0.7 kt RCW
W.Rank090° ranks 23
Current wind is below 090° avg. (5.2)
Visibility9999 m
Phenomena:N/A
Clouds:N/A
Expected CloudBase > 1,600 ft AGL from Temp-Dew spread
CeilingNone
Temp25°C (ISA +11)
Dew Point21°C (79% RH)
QNH1016 hPa
Density Alt2,247 ft
Elevation699 ft
Report Wrong Elevation
Raw Report
KLUX 222355Z AUTO 09003KT 10SM CLR 25/21 A3001 RMK AO2=

Extra information for KLUX:More info

Metar Taf Metar & Taf Last 4 Metars F.Rules Stats Wind Profile Meteogram Temp Stats Airport Information Weather charts Add Link Nearby VenuesMetar ALERT Operation Metar Decoded Social comments

AIRNAV info for KLUX